Time;durP1;ratioP1;P1;durP2;ratioP2;P2;SDS_P1;SDS_P2;PMS_P1;PMS_P2;Temp;Humidity;BMP_temperature;BMP_pressure;BME280_temperature;BME280_humidity;BME280_pressure;Samples;Min_cycle;Max_cycle;Signal;HPM_P1;HPM_P2
2023/01/18 00:01:12;;;;;;;2.85;1.10;;;0.40;99.90;;;;;;4993295;28;20042;-61
2023/01/18 00:03:41;;;;;;;2.70;1.40;;;0.40;99.90;;;;;;4993216;28;20062;-61
2023/01/18 00:06:11;;;;;;;7.57;2.05;;;0.40;99.90;;;;;;4991530;28;20050;-65
2023/01/18 00:08:41;;;;;;;5.25;2.10;;;0.40;99.90;;;;;;4992617;28;20038;-60
2023/01/18 00:11:11;;;;;;;2.92;1.70;;;0.40;99.90;;;;;;4991334;28;20042;-66
2023/01/18 00:13:39;;;;;;;4.75;2.08;;;0.40;99.90;;;;;;4991875;28;20043;-65
2023/01/18 00:16:11;;;;;;;1.30;1.20;;;0.30;99.90;;;;;;4990556;28;20054;-65
2023/01/18 00:18:39;;;;;;;3.85;1.80;;;0.40;99.90;;;;;;4993395;28;20042;-68
2023/01/18 00:21:09;;;;;;;2.97;1.67;;;0.40;99.90;;;;;;4992265;28;20034;-65
2023/01/18 00:23:40;;;;;;;2.95;1.50;;;0.40;99.90;;;;;;5002107;28;20489;-63
2023/01/18 00:26:10;;;;;;;2.95;1.40;;;0.40;99.90;;;;;;5002478;28;21851;-63
2023/01/18 00:28:38;;;;;;;3.53;1.92;;;0.40;99.90;;;;;;4989458;28;20046;-60
2023/01/18 00:31:14;;;;;;;2.90;1.77;;;0.40;99.90;;;;;;4992223;28;20046;-63
2023/01/18 00:33:45;;;;;;;2.90;2.00;;;0.40;99.90;;;;;;5002555;28;20065;-61
2023/01/18 00:36:15;;;;;;;3.67;2.33;;;0.40;99.90;;;;;;4980759;28;20042;-59
2023/01/18 00:38:50;;;;;;;6.93;2.30;;;0.40;99.90;;;;;;4992429;28;20050;-64
2023/01/18 00:41:18;;;;;;;2.90;1.95;;;0.40;99.90;;;;;;4991967;28;20065;-59
2023/01/18 00:43:46;;;;;;;4.68;1.48;;;0.40;99.90;;;;;;4993089;28;20050;-66
2023/01/18 00:46:17;;;;;;;3.22;2.28;;;0.40;99.90;;;;;;4990017;28;20039;-68
2023/01/18 00:48:45;;;;;;;3.30;1.98;;;0.50;99.90;;;;;;4991729;28;20058;-64
2023/01/18 00:51:15;;;;;;;3.42;1.88;;;0.50;99.90;;;;;;4990175;28;20066;-66
2023/01/18 00:53:44;;;;;;;2.97;1.80;;;0.50;99.90;;;;;;4993069;28;20533;-68
2023/01/18 00:56:14;;;;;;;4.80;2.03;;;0.50;99.90;;;;;;4987586;28;20042;-67
2023/01/18 00:58:42;;;;;;;3.67;1.38;;;0.50;99.90;;;;;;4991042;28;20050;-63
2023/01/18 01:01:11;;;;;;;2.50;1.40;;;0.50;99.90;;;;;;4990919;28;20053;-61
2023/01/18 01:06:43;;;;;;;2.88;1.55;;;3.80;99.90;;;;;;5005405;28;20050;-67
2023/01/18 01:09:17;;;;;;;4.97;1.75;;;0.40;99.90;;;;;;4993624;28;20047;-64
2023/01/18 01:28:28;;;;;;;3.35;1.70;;;0.30;99.90;;;;;;4981166;28;20047;-66
2023/01/18 01:31:00;;;;;;;2.35;1.30;;;0.30;99.90;;;;;;4979813;28;20749;-65
2023/01/18 01:33:29;;;;;;;7.53;2.38;;;0.30;99.90;;;;;;4990919;28;20034;-68
2023/01/18 01:35:59;;;;;;;9.98;1.65;;;0.30;99.90;;;;;;4990712;28;20478;-66
2023/01/18 01:38:27;;;;;;;;;;;0.20;99.90;;;;;;4991174;28;20054;-62
2023/01/18 01:41:25;;;;;;;3.03;1.42;;;0.20;99.90;;;;;;4995141;28;19922;-66
2023/01/18 01:43:57;;;;;;;2.13;1.20;;;0.20;99.90;;;;;;5001376;28;20045;-64
2023/01/18 01:46:34;;;;;;;2.45;1.05;;;0.20;99.90;;;;;;4990688;28;20042;-65
2023/01/18 01:49:31;;;;;;;2.42;1.42;;;0.20;99.90;;;;;;4989436;28;20050;-64
2023/01/18 01:52:01;;;;;;;3.97;1.10;;;0.20;99.90;;;;;;4989287;28;20061;-67
2023/01/18 01:54:35;;;;;;;4.15;1.17;;;0.20;99.90;;;;;;4991059;28;20054;-66
2023/01/18 01:57:14;;;;;;;4.53;1.30;;;0.20;99.90;;;;;;4989801;28;20062;-65
2023/01/18 01:59:58;;;;;;;3.63;1.55;;;0.20;99.90;;;;;;4991373;28;20054;-65
2023/01/18 02:02:27;;;;;;;1.85;0.98;;;0.20;99.90;;;;;;4989702;28;20490;-61
2023/01/18 02:04:56;;;;;;;2.47;1.20;;;0.20;99.90;;;;;;4991503;28;20046;-60
2023/01/18 02:07:27;;;;;;;3.33;1.70;;;0.20;99.90;;;;;;4984987;28;20057;-60
2023/01/18 02:09:56;;;;;;;2.50;1.30;;;1.10;99.90;;;;;;5002803;28;20034;-62
2023/01/18 02:12:25;;;;;;;6.22;1.30;;;0.20;99.90;;;;;;4990938;28;20054;-63
2023/01/18 02:14:54;;;;;;;4.75;1.70;;;0.20;99.90;;;;;;4989382;28;20058;-62
2023/01/18 02:17:31;;;;;;;7.47;1.60;;;0.20;99.90;;;;;;4990381;28;20046;-64
2023/01/18 02:20:18;;;;;;;2.60;1.55;;;0.20;99.90;;;;;;5004914;28;20045;-65
2023/01/18 02:23:06;;;;;;;3.22;1.58;;;0.30;99.90;;;;;;4988193;28;20383;-62
2023/01/18 02:26:04;;;;;;;4.90;1.60;;;0.30;99.90;;;;;;4985784;28;20502;-63
2023/01/18 02:28:34;;;;;;;3.33;1.55;;;0.40;99.90;;;;;;4989452;28;20046;-63
2023/01/18 02:31:16;;;;;;;4.32;1.30;;;0.40;99.90;;;;;;4984161;28;20060;-66
2023/01/18 02:34:05;;;;;;;3.22;1.30;;;0.40;99.90;;;;;;4986071;28;20042;-67
2023/01/18 02:36:58;;;;;;;4.18;1.27;;;0.50;99.90;;;;;;4989078;28;20038;-61
2023/01/18 02:39:37;;;;;;;9.02;2.00;;;0.60;99.90;;;;;;5005224;28;20504;-68
2023/01/18 02:48:09;;;;;;;2.67;1.63;;;0.60;99.90;;;;;;4990610;28;20054;-63
2023/01/18 02:50:37;;;;;;;6.15;1.58;;;0.60;99.90;;;;;;4992529;28;20398;-68
2023/01/18 02:53:12;;;;;;;5.93;1.25;;;0.60;99.90;;;;;;4992259;28;20490;-67
2023/01/18 02:55:50;;;;;;;3.20;1.23;;;0.60;99.90;;;;;;4992394;28;20479;-65
2023/01/18 02:58:24;;;;;;;2.35;1.10;;;0.60;99.90;;;;;;4990092;28;20620;-65
2023/01/18 03:00:58;;;;;;;2.13;1.48;;;0.60;99.90;;;;;;4989708;28;20050;-68
2023/01/18 03:03:27;;;;;;;3.45;1.70;;;0.60;99.90;;;;;;4991412;28;20046;-67
2023/01/18 03:06:00;;;;;;;3.05;1.58;;;0.60;99.90;;;;;;4987355;28;20065;-65
2023/01/18 03:08:43;;;;;;;6.40;2.60;;;0.60;99.90;;;;;;4989420;28;20394;-62
2023/01/18 03:11:17;;;;;;;3.30;1.02;;;0.70;99.90;;;;;;4990438;28;20053;-61
2023/01/18 03:14:12;;;;;;;5.47;1.48;;;0.70;99.90;;;;;;5004767;28;20049;-68
2023/01/18 03:17:10;;;;;;;4.90;2.17;;;0.70;99.90;;;;;;4989648;28;20053;-69
2023/01/18 03:25:19;;;;;;;8.30;1.23;;;0.70;99.90;;;;;;4992424;28;19921;-68
2023/01/18 03:33:43;;;;;;;5.25;1.40;;;0.60;99.90;;;;;;4988643;28;20529;-69
2023/01/18 03:36:33;;;;;;;2.45;1.30;;;0.70;99.90;;;;;;4993205;28;20644;-67
2023/01/18 03:39:10;;;;;;;2.83;1.48;;;0.60;99.90;;;;;;4994604;28;20046;-64
2023/01/18 03:41:45;;;;;;;3.28;1.60;;;0.60;99.90;;;;;;5006298;28;20501;-66
2023/01/18 03:44:20;;;;;;;2.08;1.13;;;0.60;99.90;;;;;;4991621;28;20057;-69
2023/01/18 03:46:48;;;;;;;2.08;1.58;;;0.70;99.90;;;;;;4991913;28;20068;-63
2023/01/18 03:49:16;;;;;;;8.18;1.20;;;0.60;99.90;;;;;;4991004;28;20088;-66
2023/01/18 03:51:57;;;;;;;1.55;1.20;;;0.70;99.90;;;;;;4991723;28;20045;-67
2023/01/18 03:54:43;;;;;;;2.25;1.50;;;0.60;99.90;;;;;;4989132;28;20054;-68
2023/01/18 03:57:23;;;;;;;1.73;1.00;;;0.60;99.90;;;;;;4991752;28;20046;-64
2023/01/18 03:59:51;;;;;;;0.75;0.45;;;0.70;99.90;;;;;;4990673;28;20045;-66
2023/01/18 04:02:20;;;;;;;7.07;1.25;;;0.70;99.90;;;;;;4991100;28;20046;-67
2023/01/18 04:04:48;;;;;;;3.00;1.20;;;0.70;99.90;;;;;;4988282;28;20053;-64
2023/01/18 04:07:15;;;;;;;5.13;1.52;;;0.80;99.90;;;;;;4989252;28;20050;-66
2023/01/18 04:09:43;;;;;;;4.32;0.98;;;0.70;99.90;;;;;;4989493;28;20042;-65
2023/01/18 04:12:11;;;;;;;11.25;1.35;;;0.80;99.90;;;;;;4990615;28;20069;-67
2023/01/18 04:14:38;;;;;;;1.75;1.42;;;0.80;99.90;;;;;;4989591;28;20134;-65
2023/01/18 04:17:06;;;;;;;1.58;0.70;;;0.80;99.90;;;;;;4990082;28;20054;-67
2023/01/18 04:19:33;;;;;;;0.43;0.40;;;0.80;99.90;;;;;;4986495;28;20384;-68
2023/01/18 04:22:01;;;;;;;3.92;0.95;;;0.80;99.90;;;;;;4986324;28;20035;-68
2023/01/18 04:24:32;;;;;;;1.58;0.50;;;0.80;99.90;;;;;;4988757;28;20054;-67
2023/01/18 04:27:01;;;;;;;2.72;0.73;;;0.80;99.90;;;;;;4988899;28;20065;-67
2023/01/18 04:29:29;;;;;;;2.75;0.55;;;0.80;99.90;;;;;;4978112;28;20054;-69
2023/01/18 04:31:56;;;;;;;2.35;0.73;;;0.80;99.90;;;;;;4988272;28;20035;-62
2023/01/18 04:34:24;;;;;;;2.28;0.98;;;0.80;99.90;;;;;;4990728;28;20058;-63
2023/01/18 04:36:52;;;;;;;1.58;0.73;;;0.80;99.90;;;;;;4990074;28;20046;-63
2023/01/18 04:39:20;;;;;;;1.50;0.98;;;0.80;99.90;;;;;;4996185;28;20057;-62
2023/01/18 04:41:47;;;;;;;2.67;1.90;;;0.80;99.90;;;;;;4989107;28;20058;-64
2023/01/18 04:44:16;;;;;;;2.58;1.65;;;0.80;99.90;;;;;;4994415;28;20498;-60
2023/01/18 04:46:43;;;;;;;3.13;2.17;;;0.80;99.90;;;;;;4991918;28;20039;-60
2023/01/18 04:49:14;;;;;;;4.88;2.85;;;0.80;99.90;;;;;;4993046;28;20046;-60
2023/01/18 04:51:45;;;;;;;2.85;1.63;;;0.80;99.90;;;;;;4991938;28;20061;-59
2023/01/18 04:54:16;;;;;;;1.67;1.25;;;0.80;99.90;;;;;;4994788;28;20047;-61
2023/01/18 04:56:44;;;;;;;2.42;1.20;;;0.80;99.90;;;;;;4993645;28;20046;-60
2023/01/18 04:59:15;;;;;;;1.60;1.20;;;0.80;99.90;;;;;;4989228;28;20050;-60
2023/01/18 05:01:44;;;;;;;2.95;1.20;;;0.80;99.90;;;;;;4983897;28;20054;-62
2023/01/18 05:04:11;;;;;;;2.40;1.58;;;0.80;99.90;;;;;;4990558;28;20038;-60
2023/01/18 05:06:39;;;;;;;3.10;1.70;;;0.70;99.90;;;;;;4993160;28;20057;-60
2023/01/18 05:09:10;;;;;;;2.17;1.50;;;0.80;99.90;;;;;;4998944;28;20486;-60
2023/01/18 05:11:37;;;;;;;3.13;1.45;;;0.70;99.90;;;;;;4993568;28;20046;-59
2023/01/18 05:14:05;;;;;;;2.22;1.48;;;0.70;99.90;;;;;;4991148;28;20046;-59
2023/01/18 05:16:33;;;;;;;3.83;2.13;;;0.70;99.90;;;;;;4988487;28;20047;-61
2023/01/18 05:19:01;;;;;;;4.00;2.42;;;0.70;99.90;;;;;;4990621;28;20086;-61
2023/01/18 05:21:28;;;;;;;3.45;1.83;;;0.70;99.90;;;;;;4993380;28;20376;-59
2023/01/18 05:23:56;;;;;;;2.00;1.05;;;0.70;99.90;;;;;;4993022;28;20066;-58
2023/01/18 05:26:24;;;;;;;2.67;1.35;;;0.80;99.90;;;;;;4993627;28;20057;-58
2023/01/18 05:28:56;;;;;;;2.92;1.20;;;0.80;99.90;;;;;;4990999;28;20058;-59
2023/01/18 05:31:24;;;;;;;2.30;1.17;;;0.80;99.90;;;;;;4991655;28;20051;-66
2023/01/18 05:33:52;;;;;;;2.33;1.30;;;0.80;99.90;;;;;;4985889;28;20034;-69
2023/01/18 05:36:19;;;;;;;1.40;1.10;;;0.80;99.90;;;;;;4992303;28;20054;-62
2023/01/18 05:38:47;;;;;;;2.10;1.15;;;0.80;99.90;;;;;;4996242;28;20054;-65
2023/01/18 05:41:15;;;;;;;0.63;0.63;;;0.80;99.90;;;;;;5002229;28;20383;-70
2023/01/18 05:43:43;;;;;;;1.95;0.90;;;0.80;99.90;;;;;;4993658;28;20050;-68
2023/01/18 05:46:10;;;;;;;2.70;0.82;;;0.80;99.90;;;;;;4991325;28;20050;-70
2023/01/18 05:48:38;;;;;;;2.00;0.75;;;;;;;;;;4986520;28;20055;-70
2023/01/18 05:51:08;;;;;;;1.30;0.93;;;0.80;99.90;;;;;;4988085;28;20050;-70
2023/01/18 05:53:36;;;;;;;1.35;0.85;;;0.70;99.90;;;;;;4987384;28;20071;-68
2023/01/18 05:56:05;;;;;;;5.07;1.23;;;0.80;99.90;;;;;;4988829;28;20051;-67
2023/01/18 05:58:34;;;;;;;2.20;1.20;;;0.80;99.90;;;;;;4988501;28;20433;-65
2023/01/18 06:01:01;;;;;;;3.42;1.27;;;0.80;99.90;;;;;;5019472;28;20077;-60
2023/01/18 06:03:29;;;;;;;1.50;0.75;;;0.80;99.90;;;;;;4984815;28;20057;-59
2023/01/18 06:05:58;;;;;;;3.33;1.77;;;0.80;99.90;;;;;;4982851;28;20478;-60
2023/01/18 06:08:25;;;;;;;3.85;1.20;;;0.70;99.90;;;;;;4999119;28;20409;-59
2023/01/18 06:10:58;;;;;;;3.67;1.42;;;0.70;99.90;;;;;;4969676;28;20039;-61
2023/01/18 06:13:29;;;;;;;2.70;1.08;;;0.70;99.90;;;;;;4988350;28;20058;-59
2023/01/18 06:15:57;;;;;;;1.75;0.95;;;0.70;99.90;;;;;;4990446;28;20402;-59
2023/01/18 06:18:30;;;;;;;2.13;1.13;;;0.70;99.90;;;;;;4994820;28;20050;-68
2023/01/18 06:20:59;;;;;;;2.95;1.25;;;0.70;99.90;;;;;;4987233;28;20075;-69
2023/01/18 06:23:29;;;;;;;2.88;1.40;;;0.70;99.90;;;;;;4989921;28;20042;-69
2023/01/18 06:25:57;;;;;;;1.45;1.13;;;0.70;99.90;;;;;;4990177;28;20058;-64
2023/01/18 06:28:25;;;;;;;4.90;1.80;;;0.70;99.90;;;;;;4983618;28;20061;-68
2023/01/18 06:30:56;;;;;;;2.35;1.23;;;0.60;99.90;;;;;;4986300;28;20066;-67
2023/01/18 06:33:24;;;;;;;7.70;1.55;;;0.60;99.90;;;;;;4987424;28;20050;-66
2023/01/18 06:35:52;;;;;;;3.40;1.80;;;0.60;99.90;;;;;;4987194;28;20054;-61
2023/01/18 06:38:20;;;;;;;4.03;1.60;;;0.60;99.90;;;;;;4983610;28;20054;-61
2023/01/18 06:40:48;;;;;;;3.20;1.98;;;0.60;99.90;;;;;;4990243;28;20049;-60
2023/01/18 06:43:15;;;;;;;5.30;2.60;;;0.60;99.90;;;;;;4994096;28;20185;-60
2023/01/18 06:45:43;;;;;;;5.38;1.90;;;0.70;99.90;;;;;;5004282;28;20053;-63
2023/01/18 06:48:11;;;;;;;3.63;1.80;;;0.60;99.90;;;;;;4988898;28;20566;-66
2023/01/18 06:50:38;;;;;;;2.17;1.67;;;0.60;99.90;;;;;;4979512;28;20046;-67
2023/01/18 06:53:06;;;;;;;4.97;2.10;;;0.60;99.90;;;;;;4985348;28;20049;-69
2023/01/18 06:55:34;;;;;;;3.42;2.10;;;0.60;99.90;;;;;;4989020;28;20393;-68
2023/01/18 06:58:02;;;;;;;3.63;2.15;;;0.60;99.90;;;;;;5020651;28;20046;-69
2023/01/18 07:00:29;;;;;;;5.88;2.15;;;0.60;99.90;;;;;;4985681;28;20051;-67
2023/01/18 07:02:57;;;;;;;5.50;2.28;;;0.60;99.90;;;;;;4981011;28;20042;-68
2023/01/18 07:05:25;;;;;;;8.18;2.70;;;0.50;99.90;;;;;;5012377;28;20054;-60
2023/01/18 07:07:53;;;;;;;6.28;3.33;;;0.60;99.90;;;;;;4986899;28;20053;-63
2023/01/18 07:10:21;;;;;;;7.90;3.42;;;0.60;99.90;;;;;;5005617;28;20534;-60
2023/01/18 07:12:49;;;;;;;7.72;3.83;;;0.60;99.90;;;;;;4994056;28;20058;-60
2023/01/18 07:15:17;;;;;;;10.60;4.47;;;0.70;99.90;;;;;;4989203;28;20043;-59
2023/01/18 07:17:49;;;;;;;8.15;4.00;;;0.60;99.90;;;;;;4976839;28;20051;-59
2023/01/18 07:20:18;;;;;;;11.48;4.78;;;0.70;99.90;;;;;;4988775;28;20049;-61
2023/01/18 07:22:50;;;;;;;13.95;5.45;;;0.70;99.90;;;;;;4991054;28;20065;-59
2023/01/18 07:25:19;;;;;;;16.60;5.32;;;0.60;99.90;;;;;;4979184;28;20051;-67
2023/01/18 07:27:47;;;;;;;14.27;5.88;;;0.60;99.90;;;;;;4974781;28;20047;-60
2023/01/18 07:30:16;;;;;;;14.25;5.72;;;0.60;99.90;;;;;;4988285;28;20057;-63
2023/01/18 07:32:48;;;;;;;15.70;5.93;;;0.60;99.90;;;;;;4985598;28;20058;-66
2023/01/18 07:35:21;;;;;;;18.42;6.10;;;0.50;99.90;;;;;;4977593;28;20053;-58
2023/01/18 07:37:51;;;;;;;10.85;5.47;;;0.50;99.90;;;;;;5017383;28;20058;-59
2023/01/18 07:40:20;;;;;;;12.98;5.18;;;0.50;99.90;;;;;;4987818;28;20046;-60
2023/01/18 07:42:48;;;;;;;11.93;4.32;;;0.50;99.90;;;;;;4989120;28;20053;-59
2023/01/18 07:45:16;;;;;;;8.25;3.95;;;0.50;99.90;;;;;;4996373;28;20066;-62
2023/01/18 07:47:45;;;;;;;7.68;2.95;;;0.50;99.90;;;;;;4988294;28;20069;-61
2023/01/18 07:50:13;;;;;;;7.27;2.70;;;0.50;99.90;;;;;;4989434;28;20046;-58
2023/01/18 07:52:41;;;;;;;13.25;3.35;;;0.40;99.90;;;;;;4989734;28;20043;-62
2023/01/18 07:55:08;;;;;;;8.77;2.97;;;0.40;99.90;;;;;;4989295;28;20417;-62
2023/01/18 07:57:36;;;;;;;9.85;2.80;;;0.30;99.90;;;;;;4977587;28;20042;-59
2023/01/18 08:00:06;;;;;;;7.00;2.92;;;0.30;99.90;;;;;;4988750;28;20061;-58
2023/01/18 08:02:39;;;;;;;8.93;3.58;;;0.30;99.90;;;;;;4983477;28;20038;-59
2023/01/18 08:05:09;;;;;;;11.57;3.55;;;0.30;99.90;;;;;;4980553;28;20046;-61
2023/01/18 08:07:37;;;;;;;6.13;2.38;;;0.20;99.90;;;;;;4975980;28;20494;-59
2023/01/18 08:10:04;;;;;;;5.45;2.67;;;0.20;99.90;;;;;;4986460;28;20498;-60
2023/01/18 08:12:32;;;;;;;8.35;2.72;;;0.20;99.90;;;;;;4983268;28;20043;-59
2023/01/18 08:15:00;;;;;;;6.50;3.25;;;0.20;99.90;;;;;;4978398;28;20057;-59
2023/01/18 08:17:28;;;;;;;4.65;3.10;;;0.20;99.90;;;;;;4990197;28;20057;-59
2023/01/18 08:19:56;;;;;;;9.88;6.03;;;0.20;99.90;;;;;;4992624;28;20053;-59
2023/01/18 08:22:23;;;;;;;16.02;8.38;;;0.20;99.90;;;;;;4988391;28;20517;-60
2023/01/18 08:24:51;;;;;;;5.05;2.55;;;0.10;99.90;;;;;;4994297;28;20050;-59
2023/01/18 08:27:19;;;;;;;10.98;2.92;;;0.20;99.90;;;;;;4990606;28;20055;-59
2023/01/18 08:29:47;;;;;;;4.45;1.98;;;0.20;99.90;;;;;;4990093;28;20039;-60
2023/01/18 08:32:14;;;;;;;4.07;2.20;;;0.20;99.90;;;;;;4987962;28;20054;-62
2023/01/18 08:34:42;;;;;;;9.70;3.13;;;0.20;99.90;;;;;;4990839;28;20057;-59
2023/01/18 08:37:10;;;;;;;6.65;2.63;;;0.20;99.90;;;;;;4990676;28;20054;-59
2023/01/18 08:39:38;;;;;;;7.88;1.65;;;0.20;99.90;;;;;;4986174;28;20066;-59
2023/01/18 08:42:06;;;;;;;8.10;2.63;;;0.20;99.90;;;;;;4993154;28;20053;-59
2023/01/18 08:44:33;;;;;;;7.25;3.45;;;0.30;99.90;;;;;;4988986;28;20134;-58
2023/01/18 08:47:02;;;;;;;7.35;2.97;;;0.30;99.90;;;;;;4999796;28;20045;-62
2023/01/18 08:49:31;;;;;;;12.00;2.78;;;0.30;99.90;;;;;;4988332;28;20050;-61
2023/01/18 08:51:59;;;;;;;13.68;3.85;;;0.30;99.90;;;;;;4985808;28;20050;-66
2023/01/18 08:54:27;;;;;;;10.43;2.33;;;0.40;99.90;;;;;;4987344;28;20520;-66
2023/01/18 08:56:54;;;;;;;10.27;2.95;;;0.40;99.90;;;;;;4990923;28;20053;-59
2023/01/18 08:59:22;;;;;;;13.07;4.10;;;0.50;99.90;;;;;;4990730;28;20046;-63
2023/01/18 09:01:50;;;;;;;15.15;3.20;;;0.60;99.90;;;;;;5000055;28;20045;-66
2023/01/18 09:04:17;;;;;;;9.98;3.70;;;0.60;99.90;;;;;;4992458;28;20081;-68
2023/01/18 09:06:48;;;;;;;9.45;3.63;;;0.60;99.90;;;;;;4997934;28;20046;-63
2023/01/18 09:09:17;;;;;;;14.15;4.47;;;0.70;99.90;;;;;;4996355;28;20042;-61
2023/01/18 09:11:45;;;;;;;12.25;4.45;;;0.70;99.90;;;;;;4988856;28;20050;-68
2023/01/18 09:14:14;;;;;;;15.85;7.60;;;0.80;99.90;;;;;;5000114;28;20061;-70
2023/01/18 09:16:41;;;;;;;29.33;17.43;;;0.80;99.90;;;;;;4996939;28;20054;-63
2023/01/18 09:19:10;;;;;;;11.32;4.28;;;0.90;99.90;;;;;;4989028;28;20739;-59
2023/01/18 09:21:39;;;;;;;23.33;5.75;;;1.00;99.90;;;;;;4990631;28;20042;-61
2023/01/18 09:24:07;;;;;;;7.80;3.10;;;1.00;99.90;;;;;;4994586;28;20047;-61
2023/01/18 09:26:34;;;;;;;15.63;3.78;;;1.00;99.90;;;;;;4998074;28;20061;-61
2023/01/18 09:29:02;;;;;;;8.77;2.90;;;1.10;99.90;;;;;;4993633;28;20498;-68
2023/01/18 09:31:30;;;;;;;11.05;4.47;;;1.10;99.90;;;;;;4997155;28;20046;-69
2023/01/18 09:33:59;;;;;;;10.85;3.13;;;1.10;99.90;;;;;;4989184;28;20046;-66
2023/01/18 09:36:49;;;;;;;13.02;3.45;;;1.10;99.90;;;;;;5002167;28;20055;-60
2023/01/18 09:39:18;;;;;;;16.55;4.80;;;1.10;99.90;;;;;;4991446;28;20035;-64
2023/01/18 09:41:52;;;;;;;6.88;2.42;;;1.10;99.90;;;;;;4989111;28;20418;-64
2023/01/18 09:44:35;;;;;;;10.63;2.70;;;1.10;99.90;;;;;;4989145;28;20046;-59
2023/01/18 09:47:24;;;;;;;10.43;2.78;;;1.20;99.90;;;;;;4992049;28;20069;-59
2023/01/18 09:49:56;;;;;;;14.57;3.42;;;1.10;99.90;;;;;;5001394;28;20042;-62
2023/01/18 09:52:39;;;;;;;20.77;2.58;;;1.10;99.90;;;;;;4998890;28;20046;-59
2023/01/18 09:55:40;;;;;;;13.75;4.40;;;1.00;99.90;;;;;;4990457;28;20042;-58
2023/01/18 09:58:40;;;;;;;15.68;6.43;;;0.90;99.90;;;;;;5015123;28;20053;-59
2023/01/18 10:01:13;;;;;;;8.50;2.45;;;0.90;99.90;;;;;;5004335;28;20062;-58
2023/01/18 10:03:52;;;;;;;12.20;2.85;;;0.90;99.90;;;;;;4993719;28;20046;-60
2023/01/18 10:06:42;;;;;;;10.30;3.17;;;0.90;99.90;;;;;;4999397;28;20050;-59
2023/01/18 10:09:23;;;;;;;12.48;3.85;;;0.80;99.90;;;;;;5013711;28;20050;-59
2023/01/18 10:12:07;;;;;;;19.40;6.20;;;0.80;99.90;;;;;;5017573;28;20050;-57
2023/01/18 10:14:55;;;;;;;19.35;9.50;;;0.80;99.90;;;;;;4993489;28;20401;-60
2023/01/18 10:17:41;;;;;;;16.58;5.38;;;0.80;99.90;;;;;;4998890;28;20055;-59
2023/01/18 10:20:27;;;;;;;19.35;5.57;;;0.90;99.90;;;;;;4993056;28;20046;-58
2023/01/18 10:23:01;;;;;;;18.92;4.22;;;0.90;99.90;;;;;;4989321;28;20043;-59
2023/01/18 10:25:46;;;;;;;6.38;2.40;;;1.00;99.90;;;;;;5002093;28;20052;-62
2023/01/18 10:28:33;;;;;;;14.85;3.95;;;1.10;99.90;;;;;;5000115;28;20046;-59
2023/01/18 10:31:19;;;;;;;11.13;4.65;;;1.20;99.90;;;;;;5003935;28;20053;-58
2023/01/18 10:33:56;;;;;;;17.23;6.00;;;1.20;99.90;;;;;;4988726;28;20050;-58
2023/01/18 10:36:40;;;;;;;21.75;7.55;;;1.20;99.90;;;;;;5005611;28;20042;-59
2023/01/18 10:39:35;;;;;;;18.98;4.88;;;1.20;99.90;;;;;;4981258;28;20042;-59
2023/01/18 10:42:15;;;;;;;17.45;5.25;;;1.30;99.90;;;;;;4991815;28;20038;-61
2023/01/18 10:44:43;;;;;;;21.88;4.95;;;1.30;99.90;;;;;;4990076;28;20038;-59
2023/01/18 10:47:15;;;;;;;18.95;3.78;;;1.40;99.90;;;;;;4994234;28;20626;-60
2023/01/18 10:49:47;;;;;;;22.67;4.65;;;1.50;99.90;;;;;;4996679;28;20038;-60
2023/01/18 10:52:24;;;;;;;18.48;5.63;;;1.60;99.90;;;;;;4988140;28;20046;-63
2023/01/18 10:55:00;;;;;;;12.85;5.00;;;1.70;99.90;;;;;;4990386;28;20066;-59
2023/01/18 10:57:42;;;;;;;10.82;3.28;;;2.00;99.90;;;;;;4994400;28;20046;-59
2023/01/18 11:00:32;;;;;;;12.73;3.58;;;2.00;99.90;;;;;;4985515;28;20050;-62
2023/01/18 11:03:03;;;;;;;26.40;4.28;;;2.20;99.90;;;;;;4993569;28;20054;-60
2023/01/18 11:05:43;;;;;;;6.85;3.92;;;2.30;99.90;;;;;;4991931;28;20050;-59
2023/01/18 11:08:33;;;;;;;17.90;4.20;;;2.30;99.90;;;;;;4991956;28;20042;-61
2023/01/18 11:11:05;;;;;;;14.48;3.05;;;2.50;99.90;;;;;;5001610;28;20046;-59
2023/01/18 11:13:42;;;;;;;14.70;3.37;;;2.60;99.90;;;;;;4990548;28;20035;-59
2023/01/18 11:16:22;;;;;;;12.70;3.30;;;2.70;99.90;;;;;;4989504;28;20038;-60
2023/01/18 11:19:00;;;;;;;11.07;3.50;;;2.90;99.90;;;;;;4984835;28;20503;-58
2023/01/18 11:21:51;;;;;;;14.15;4.22;;;2.90;99.90;;;;;;4991287;28;20494;-64
2023/01/18 11:24:31;;;;;;;21.27;3.97;;;2.90;99.90;;;;;;4989333;28;20038;-59
2023/01/18 11:27:01;;;;;;;11.48;3.05;;;3.00;99.90;;;;;;4984369;28;20315;-61
2023/01/18 11:29:34;;;;;;;13.57;2.90;;;3.10;99.90;;;;;;4989953;28;20054;-63
2023/01/18 11:32:14;;;;;;;11.75;2.65;;;3.10;99.90;;;;;;4975815;28;20065;-62
2023/01/18 11:34:45;;;;;;;;;;;3.20;99.90;;;;;;4991837;28;20047;-58
2023/01/18 11:37:34;;;;;;;7.55;2.60;;;3.30;99.90;;;;;;4984854;28;19922;-61
2023/01/18 11:40:28;;;;;;;14.10;3.20;;;3.20;99.90;;;;;;4983595;28;20438;-61
2023/01/18 11:43:18;;;;;;;16.10;3.20;;;3.20;99.90;;;;;;4994486;28;20050;-63
2023/01/18 11:46:16;;;;;;;9.75;2.80;;;3.20;99.90;;;;;;5003457;28;20046;-59
2023/01/18 11:48:58;;;;;;;13.57;3.77;;;3.30;99.90;;;;;;4991211;28;20038;-69
2023/01/18 11:51:47;;;;;;;13.18;2.65;;;3.40;99.90;;;;;;5006989;28;20045;-63
2023/01/18 11:54:55;;;;;;;8.98;2.85;;;3.50;99.90;;;;;;4992627;28;20042;-66
2023/01/18 11:57:23;;;;;;;14.25;4.60;;;3.80;99.90;;;;;;4991036;28;20057;-69
2023/01/18 11:59:51;;;;;;;11.88;2.78;;;4.20;99.90;;;;;;4991884;28;20042;-68
2023/01/18 12:02:44;;;;;;;21.00;3.17;;;4.40;99.90;;;;;;4994171;28;20042;-67
2023/01/18 12:05:27;;;;;;;16.25;2.80;;;5.10;99.90;;;;;;5010782;28;20045;-69
2023/01/18 12:08:12;;;;;;;10.73;3.65;;;5.40;99.90;;;;;;4997848;28;20053;-64
2023/01/18 12:11:11;;;;;;;9.70;2.85;;;5.40;99.90;;;;;;4993134;28;20509;-60
2023/01/18 12:13:44;;;;;;;11.82;3.38;;;5.70;99.90;;;;;;4991863;28;20057;-63
2023/01/18 12:16:49;;;;;;;18.65;3.85;;;6.00;99.90;;;;;;5011793;28;20042;-62
2023/01/18 12:19:46;;;;;;;13.40;2.90;;;6.20;99.90;;;;;;4996917;28;20046;-59
2023/01/18 12:22:21;;;;;;;15.75;3.67;;;6.40;99.90;;;;;;5006689;28;20050;-64
2023/01/18 12:25:00;;;;;;;20.08;6.60;;;6.30;99.90;;;;;;5012701;28;20397;-59
2023/01/18 12:27:37;;;;;;;20.90;4.20;;;6.30;99.90;;;;;;5008026;28;20053;-60
2023/01/18 12:30:10;;;;;;;12.18;4.43;;;6.30;99.90;;;;;;4974005;28;20047;-58
2023/01/18 12:33:07;;;;;;;14.60;3.13;;;6.20;99.90;;;;;;4993615;28;20057;-59
2023/01/18 12:35:55;;;;;;;14.07;3.15;;;6.10;99.90;;;;;;5005825;28;20057;-59
2023/01/18 12:38:30;;;;;;;11.50;3.47;;;6.10;99.90;;;;;;4989686;28;20042;-58
2023/01/18 12:41:31;;;;;;;11.73;4.22;;;6.10;99.90;;;;;;5007201;28;20047;-61
2023/01/18 12:44:25;;;;;;;15.55;2.80;;;6.00;99.90;;;;;;4995328;28;20042;-61
2023/01/18 12:47:10;;;;;;;9.93;2.30;;;5.80;99.90;;;;;;4989274;28;20131;-59
2023/01/18 12:49:45;;;;;;;14.90;2.40;;;5.50;99.90;;;;;;4992805;28;20046;-59
2023/01/18 12:52:15;;;;;;;13.68;3.38;;;5.30;99.90;;;;;;4997964;28;20403;-60
2023/01/18 12:54:59;;;;;;;14.15;2.90;;;5.20;99.90;;;;;;4990407;28;20045;-59
2023/01/18 12:57:28;;;;;;;16.67;2.22;;;5.00;99.90;;;;;;4982547;28;20046;-60
2023/01/18 13:00:08;;;;;;;20.92;3.15;;;4.90;99.90;;;;;;4984437;28;20632;-60
2023/01/18 13:02:35;;;;;;;12.43;3.28;;;4.70;99.90;;;;;;4998019;28;20421;-60
2023/01/18 13:05:09;;;;;;;8.75;2.08;;;4.60;99.90;;;;;;4994839;28;20046;-60
2023/01/18 13:07:41;;;;;;;14.60;2.80;;;4.50;99.90;;;;;;5007267;28;20046;-60
2023/01/18 13:10:22;;;;;;;12.52;2.60;;;4.40;99.90;;;;;;4993002;28;20038;-60
2023/01/18 13:12:50;;;;;;;24.70;4.63;;;4.30;99.90;;;;;;5006914;28;20045;-61
2023/01/18 13:15:59;;;;;;;6.63;1.67;;;4.30;99.90;;;;;;4997314;28;20406;-59
2023/01/18 13:18:35;;;;;;;15.43;3.75;;;4.30;99.90;;;;;;5001126;28;20073;-60
2023/01/18 13:21:05;;;;;;;14.27;3.15;;;4.30;99.90;;;;;;5002273;28;20046;-60
2023/01/18 13:23:48;;;;;;;9.57;2.30;;;4.30;99.90;;;;;;4994180;28;20058;-61
2023/01/18 13:26:26;;;;;;;18.33;2.38;;;4.50;99.90;;;;;;4994109;28;20045;-60
2023/01/18 13:29:19;;;;;;;18.17;2.45;;;4.50;99.90;;;;;;4998361;28;20046;-60
2023/01/18 13:31:48;;;;;;;11.20;1.85;;;4.80;99.90;;;;;;4997751;28;20057;-60
2023/01/18 13:34:29;;;;;;;14.80;2.38;;;4.80;99.90;;;;;;5001495;28;20053;-60
2023/01/18 13:36:59;;;;;;;6.38;1.52;;;4.80;99.90;;;;;;4998969;28;20065;-59
2023/01/18 13:39:45;;;;;;;12.05;2.65;;;4.70;99.90;;;;;;4988922;28;20046;-60
2023/01/18 13:42:19;;;;;;;8.98;2.65;;;4.60;99.90;;;;;;4987394;28;20051;-62
2023/01/18 13:44:49;;;;;;;14.07;3.85;;;4.50;99.90;;;;;;4994405;28;20050;-64
2023/01/18 13:47:34;;;;;;;13.50;3.33;;;4.30;99.90;;;;;;4995435;28;20041;-62
2023/01/18 13:50:04;;;;;;;12.65;2.10;;;4.20;99.90;;;;;;4997009;28;20052;-64
2023/01/18 13:52:37;;;;;;;9.93;3.10;;;4.10;99.90;;;;;;4999758;28;20409;-62
2023/01/18 13:55:24;;;;;;;17.83;2.90;;;4.10;99.90;;;;;;4991216;28;20053;-64
2023/01/18 13:57:54;;;;;;;13.13;2.92;;;4.20;99.90;;;;;;4991380;28;20038;-62
2023/01/18 14:00:24;;;;;;;16.38;2.28;;;4.20;99.90;;;;;;4986358;28;20057;-61
2023/01/18 14:03:00;;;;;;;16.15;2.88;;;4.20;99.90;;;;;;4988174;28;20057;-66
2023/01/18 14:05:37;;;;;;;19.20;3.20;;;4.20;99.90;;;;;;4989230;28;20057;-62